sensor_id;sensor_type;location;lat;lon;timestamp;P1;durP1;ratioP1;P2;durP2;ratioP2
359;SDS011;168;48.872;9.226;2024-01-27T00:00:31;5.10;;;2.63;;
359;SDS011;168;48.872;9.226;2024-01-27T00:02:59;6.57;;;2.40;;
359;SDS011;168;48.872;9.226;2024-01-27T00:05:26;6.47;;;3.20;;
359;SDS011;168;48.872;9.226;2024-01-27T00:07:53;6.00;;;3.07;;
359;SDS011;168;48.872;9.226;2024-01-27T00:10:21;6.50;;;2.57;;
359;SDS011;168;48.872;9.226;2024-01-27T00:12:48;8.23;;;2.90;;
359;SDS011;168;48.872;9.226;2024-01-27T00:15:17;6.57;;;2.80;;
359;SDS011;168;48.872;9.226;2024-01-27T00:17:44;9.30;;;3.27;;
359;SDS011;168;48.872;9.226;2024-01-27T00:20:11;5.00;;;2.57;;
359;SDS011;168;48.872;9.226;2024-01-27T00:22:39;4.93;;;2.30;;
359;SDS011;168;48.872;9.226;2024-01-27T00:25:06;5.73;;;2.90;;
359;SDS011;168;48.872;9.226;2024-01-27T00:27:34;6.67;;;2.70;;
359;SDS011;168;48.872;9.226;2024-01-27T00:30:01;5.00;;;2.70;;
359;SDS011;168;48.872;9.226;2024-01-27T00:32:31;8.93;;;3.63;;
359;SDS011;168;48.872;9.226;2024-01-27T00:34:59;5.90;;;3.10;;
359;SDS011;168;48.872;9.226;2024-01-27T00:37:26;5.90;;;3.30;;
359;SDS011;168;48.872;9.226;2024-01-27T00:39:54;6.70;;;3.13;;
359;SDS011;168;48.872;9.226;2024-01-27T00:42:21;6.77;;;3.90;;
359;SDS011;168;48.872;9.226;2024-01-27T00:44:49;6.53;;;3.23;;
359;SDS011;168;48.872;9.226;2024-01-27T00:47:17;4.83;;;3.37;;
359;SDS011;168;48.872;9.226;2024-01-27T00:49:45;7.70;;;3.33;;
359;SDS011;168;48.872;9.226;2024-01-27T00:52:13;6.17;;;3.30;;
359;SDS011;168;48.872;9.226;2024-01-27T00:54:40;8.07;;;4.20;;
359;SDS011;168;48.872;9.226;2024-01-27T00:57:08;5.67;;;3.87;;
359;SDS011;168;48.872;9.226;2024-01-27T00:59:35;5.50;;;3.50;;
359;SDS011;168;48.872;9.226;2024-01-27T01:02:03;5.57;;;4.37;;
359;SDS011;168;48.872;9.226;2024-01-27T01:04:30;6.00;;;4.10;;
359;SDS011;168;48.872;9.226;2024-01-27T01:06:59;6.73;;;3.57;;
359;SDS011;168;48.872;9.226;2024-01-27T01:09:26;6.37;;;4.10;;
359;SDS011;168;48.872;9.226;2024-01-27T01:11:53;6.83;;;4.10;;
359;SDS011;168;48.872;9.226;2024-01-27T01:14:21;6.30;;;3.60;;
359;SDS011;168;48.872;9.226;2024-01-27T01:16:48;5.00;;;4.50;;
359;SDS011;168;48.872;9.226;2024-01-27T01:19:16;6.63;;;3.97;;
359;SDS011;168;48.872;9.226;2024-01-27T01:21:43;4.37;;;3.17;;
359;SDS011;168;48.872;9.226;2024-01-27T01:24:12;6.97;;;3.50;;
359;SDS011;168;48.872;9.226;2024-01-27T01:26:39;6.53;;;3.60;;
359;SDS011;168;48.872;9.226;2024-01-27T01:29:06;5.73;;;4.13;;
359;SDS011;168;48.872;9.226;2024-01-27T01:31:34;7.50;;;4.20;;
359;SDS011;168;48.872;9.226;2024-01-27T01:34:01;6.33;;;4.07;;
359;SDS011;168;48.872;9.226;2024-01-27T01:36:28;6.50;;;3.80;;
359;SDS011;168;48.872;9.226;2024-01-27T01:38:56;7.30;;;4.00;;
359;SDS011;168;48.872;9.226;2024-01-27T01:41:25;5.17;;;3.83;;
359;SDS011;168;48.872;9.226;2024-01-27T01:43:52;6.30;;;4.13;;
359;SDS011;168;48.872;9.226;2024-01-27T01:46:21;6.53;;;4.10;;
359;SDS011;168;48.872;9.226;2024-01-27T01:48:49;6.77;;;3.60;;
359;SDS011;168;48.872;9.226;2024-01-27T01:51:16;5.40;;;4.10;;
359;SDS011;168;48.872;9.226;2024-01-27T01:53:44;7.47;;;4.90;;
359;SDS011;168;48.872;9.226;2024-01-27T01:56:14;6.30;;;4.00;;
359;SDS011;168;48.872;9.226;2024-01-27T01:58:44;9.40;;;4.10;;
359;SDS011;168;48.872;9.226;2024-01-27T02:01:11;4.57;;;3.40;;
359;SDS011;168;48.872;9.226;2024-01-27T02:03:39;7.00;;;4.33;;
359;SDS011;168;48.872;9.226;2024-01-27T02:06:06;5.97;;;4.30;;
359;SDS011;168;48.872;9.226;2024-01-27T02:08:33;6.47;;;3.80;;
359;SDS011;168;48.872;9.226;2024-01-27T02:11:01;5.00;;;3.77;;
359;SDS011;168;48.872;9.226;2024-01-27T02:13:28;4.50;;;3.77;;
359;SDS011;168;48.872;9.226;2024-01-27T02:15:57;7.90;;;5.00;;
359;SDS011;168;48.872;9.226;2024-01-27T02:18:24;5.80;;;4.07;;
359;SDS011;168;48.872;9.226;2024-01-27T02:20:52;6.13;;;4.50;;
359;SDS011;168;48.872;9.226;2024-01-27T02:23:19;8.00;;;4.30;;
359;SDS011;168;48.872;9.226;2024-01-27T02:25:48;6.63;;;3.70;;
359;SDS011;168;48.872;9.226;2024-01-27T02:28:16;6.20;;;4.23;;
359;SDS011;168;48.872;9.226;2024-01-27T02:30:43;6.90;;;4.57;;
359;SDS011;168;48.872;9.226;2024-01-27T02:33:11;5.77;;;4.13;;
359;SDS011;168;48.872;9.226;2024-01-27T02:35:38;9.57;;;3.77;;
359;SDS011;168;48.872;9.226;2024-01-27T02:38:06;5.23;;;3.93;;
359;SDS011;168;48.872;9.226;2024-01-27T02:40:33;5.77;;;4.13;;
359;SDS011;168;48.872;9.226;2024-01-27T02:43:02;6.43;;;3.97;;
359;SDS011;168;48.872;9.226;2024-01-27T02:45:29;7.83;;;4.20;;
359;SDS011;168;48.872;9.226;2024-01-27T02:47:57;5.87;;;3.87;;
359;SDS011;168;48.872;9.226;2024-01-27T02:50:24;9.60;;;4.37;;
359;SDS011;168;48.872;9.226;2024-01-27T02:52:52;7.10;;;3.70;;
359;SDS011;168;48.872;9.226;2024-01-27T02:55:19;6.53;;;3.90;;
359;SDS011;168;48.872;9.226;2024-01-27T02:57:47;5.57;;;3.97;;
359;SDS011;168;48.872;9.226;2024-01-27T03:00:16;5.87;;;4.20;;
359;SDS011;168;48.872;9.226;2024-01-27T03:02:44;4.63;;;3.53;;
359;SDS011;168;48.872;9.226;2024-01-27T03:05:12;7.13;;;4.53;;
359;SDS011;168;48.872;9.226;2024-01-27T03:07:39;6.83;;;4.00;;
359;SDS011;168;48.872;9.226;2024-01-27T03:10:07;6.67;;;3.80;;
359;SDS011;168;48.872;9.226;2024-01-27T03:12:35;9.33;;;4.50;;
359;SDS011;168;48.872;9.226;2024-01-27T03:15:02;5.00;;;4.20;;
359;SDS011;168;48.872;9.226;2024-01-27T03:17:31;5.00;;;4.10;;
359;SDS011;168;48.872;9.226;2024-01-27T03:19:59;7.93;;;4.07;;
359;SDS011;168;48.872;9.226;2024-01-27T03:22:26;7.17;;;4.70;;
359;SDS011;168;48.872;9.226;2024-01-27T03:24:54;8.13;;;5.47;;
359;SDS011;168;48.872;9.226;2024-01-27T03:27:21;9.90;;;5.20;;
359;SDS011;168;48.872;9.226;2024-01-27T03:29:48;5.60;;;4.63;;
359;SDS011;168;48.872;9.226;2024-01-27T03:32:16;6.33;;;4.77;;
359;SDS011;168;48.872;9.226;2024-01-27T03:34:44;8.67;;;5.13;;
359;SDS011;168;48.872;9.226;2024-01-27T03:37:12;7.77;;;4.33;;
359;SDS011;168;48.872;9.226;2024-01-27T03:39:40;6.00;;;4.90;;
359;SDS011;168;48.872;9.226;2024-01-27T03:42:08;6.60;;;4.50;;
359;SDS011;168;48.872;9.226;2024-01-27T03:44:36;7.53;;;4.40;;
359;SDS011;168;48.872;9.226;2024-01-27T03:47:03;6.50;;;4.53;;
359;SDS011;168;48.872;9.226;2024-01-27T03:49:30;6.57;;;4.80;;
359;SDS011;168;48.872;9.226;2024-01-27T03:51:59;6.20;;;4.97;;
359;SDS011;168;48.872;9.226;2024-01-27T03:54:26;7.60;;;5.50;;
359;SDS011;168;48.872;9.226;2024-01-27T03:56:54;11.67;;;5.70;;
359;SDS011;168;48.872;9.226;2024-01-27T03:59:21;6.30;;;4.50;;
359;SDS011;168;48.872;9.226;2024-01-27T04:01:49;5.80;;;4.87;;
359;SDS011;168;48.872;9.226;2024-01-27T04:04:16;10.33;;;5.10;;
359;SDS011;168;48.872;9.226;2024-01-27T04:06:43;6.90;;;4.33;;
359;SDS011;168;48.872;9.226;2024-01-27T04:09:12;4.37;;;3.97;;
359;SDS011;168;48.872;9.226;2024-01-27T04:11:40;6.17;;;4.70;;
359;SDS011;168;48.872;9.226;2024-01-27T04:14:07;9.30;;;5.40;;
359;SDS011;168;48.872;9.226;2024-01-27T04:16:34;8.00;;;5.40;;
359;SDS011;168;48.872;9.226;2024-01-27T04:19:02;9.07;;;4.70;;
359;SDS011;168;48.872;9.226;2024-01-27T04:21:29;7.80;;;5.30;;
359;SDS011;168;48.872;9.226;2024-01-27T04:23:57;7.93;;;5.13;;
359;SDS011;168;48.872;9.226;2024-01-27T04:26:26;8.70;;;5.43;;
359;SDS011;168;48.872;9.226;2024-01-27T04:28:53;5.67;;;4.40;;
359;SDS011;168;48.872;9.226;2024-01-27T04:31:20;8.43;;;4.53;;
359;SDS011;168;48.872;9.226;2024-01-27T04:33:48;9.70;;;5.10;;
359;SDS011;168;48.872;9.226;2024-01-27T04:36:24;6.60;;;5.23;;
359;SDS011;168;48.872;9.226;2024-01-27T04:38:52;9.83;;;5.80;;
359;SDS011;168;48.872;9.226;2024-01-27T04:41:19;7.10;;;5.43;;
359;SDS011;168;48.872;9.226;2024-01-27T04:43:48;5.47;;;4.73;;
359;SDS011;168;48.872;9.226;2024-01-27T04:46:15;5.97;;;5.07;;
359;SDS011;168;48.872;9.226;2024-01-27T04:48:43;8.63;;;5.13;;
359;SDS011;168;48.872;9.226;2024-01-27T04:51:10;8.07;;;4.73;;
359;SDS011;168;48.872;9.226;2024-01-27T04:53:37;8.27;;;4.60;;
359;SDS011;168;48.872;9.226;2024-01-27T04:56:05;5.57;;;4.40;;
359;SDS011;168;48.872;9.226;2024-01-27T04:58:33;6.70;;;4.87;;
359;SDS011;168;48.872;9.226;2024-01-27T05:01:02;5.93;;;4.43;;
359;SDS011;168;48.872;9.226;2024-01-27T05:03:29;8.70;;;5.70;;
359;SDS011;168;48.872;9.226;2024-01-27T05:05:57;9.50;;;4.80;;
359;SDS011;168;48.872;9.226;2024-01-27T05:08:24;6.30;;;4.87;;
359;SDS011;168;48.872;9.226;2024-01-27T05:10:51;7.63;;;4.90;;
359;SDS011;168;48.872;9.226;2024-01-27T05:13:19;9.67;;;5.23;;
359;SDS011;168;48.872;9.226;2024-01-27T05:15:46;9.90;;;5.07;;
359;SDS011;168;48.872;9.226;2024-01-27T05:18:16;9.63;;;5.33;;
359;SDS011;168;48.872;9.226;2024-01-27T05:20:43;7.20;;;4.70;;
359;SDS011;168;48.872;9.226;2024-01-27T05:23:11;7.70;;;5.57;;
359;SDS011;168;48.872;9.226;2024-01-27T05:25:38;9.10;;;5.60;;
359;SDS011;168;48.872;9.226;2024-01-27T05:28:05;9.80;;;5.80;;
359;SDS011;168;48.872;9.226;2024-01-27T05:30:33;7.00;;;4.77;;
359;SDS011;168;48.872;9.226;2024-01-27T05:33:00;6.77;;;4.50;;
359;SDS011;168;48.872;9.226;2024-01-27T05:35:29;6.53;;;5.30;;
359;SDS011;168;48.872;9.226;2024-01-27T05:37:56;5.70;;;4.83;;
359;SDS011;168;48.872;9.226;2024-01-27T05:40:24;11.60;;;5.93;;
359;SDS011;168;48.872;9.226;2024-01-27T05:42:51;7.77;;;5.50;;
359;SDS011;168;48.872;9.226;2024-01-27T05:45:18;8.33;;;5.13;;
359;SDS011;168;48.872;9.226;2024-01-27T05:47:45;10.80;;;5.40;;
359;SDS011;168;48.872;9.226;2024-01-27T05:50:13;8.77;;;5.30;;
359;SDS011;168;48.872;9.226;2024-01-27T05:52:42;8.83;;;5.33;;
359;SDS011;168;48.872;9.226;2024-01-27T05:55:09;9.90;;;5.47;;
359;SDS011;168;48.872;9.226;2024-01-27T05:57:38;9.07;;;5.40;;
359;SDS011;168;48.872;9.226;2024-01-27T06:00:06;5.80;;;4.70;;
359;SDS011;168;48.872;9.226;2024-01-27T06:02:35;6.20;;;4.27;;
359;SDS011;168;48.872;9.226;2024-01-27T06:05:03;7.83;;;6.33;;
359;SDS011;168;48.872;9.226;2024-01-27T06:07:31;6.30;;;5.10;;
359;SDS011;168;48.872;9.226;2024-01-27T06:09:59;7.50;;;4.70;;
359;SDS011;168;48.872;9.226;2024-01-27T06:12:27;6.30;;;4.80;;
359;SDS011;168;48.872;9.226;2024-01-27T06:14:55;7.77;;;5.67;;
359;SDS011;168;48.872;9.226;2024-01-27T06:17:24;8.90;;;6.00;;
359;SDS011;168;48.872;9.226;2024-01-27T06:19:55;9.33;;;5.77;;
359;SDS011;168;48.872;9.226;2024-01-27T06:22:22;7.23;;;6.07;;
359;SDS011;168;48.872;9.226;2024-01-27T06:24:50;7.03;;;5.50;;
359;SDS011;168;48.872;9.226;2024-01-27T06:30:09;8.10;;;6.40;;
359;SDS011;168;48.872;9.226;2024-01-27T06:32:38;13.03;;;7.60;;
359;SDS011;168;48.872;9.226;2024-01-27T06:35:11;8.80;;;6.30;;
359;SDS011;168;48.872;9.226;2024-01-27T06:37:38;10.30;;;5.90;;
359;SDS011;168;48.872;9.226;2024-01-27T06:40:06;6.93;;;6.27;;
359;SDS011;168;48.872;9.226;2024-01-27T06:42:34;7.20;;;5.50;;
359;SDS011;168;48.872;9.226;2024-01-27T06:45:03;8.30;;;6.07;;
359;SDS011;168;48.872;9.226;2024-01-27T06:47:31;6.30;;;5.67;;
359;SDS011;168;48.872;9.226;2024-01-27T06:49:58;8.70;;;5.97;;
359;SDS011;168;48.872;9.226;2024-01-27T06:52:26;12.60;;;5.70;;
359;SDS011;168;48.872;9.226;2024-01-27T06:54:53;8.00;;;6.03;;
359;SDS011;168;48.872;9.226;2024-01-27T06:57:22;8.53;;;5.90;;
359;SDS011;168;48.872;9.226;2024-01-27T06:59:51;9.07;;;6.63;;
359;SDS011;168;48.872;9.226;2024-01-27T07:02:23;7.73;;;6.20;;
359;SDS011;168;48.872;9.226;2024-01-27T07:04:51;6.90;;;5.40;;
359;SDS011;168;48.872;9.226;2024-01-27T07:07:20;7.90;;;6.53;;
359;SDS011;168;48.872;9.226;2024-01-27T07:09:49;9.38;;;6.70;;
359;SDS011;168;48.872;9.226;2024-01-27T07:12:17;8.23;;;7.43;;
359;SDS011;168;48.872;9.226;2024-01-27T07:14:44;8.27;;;7.27;;
359;SDS011;168;48.872;9.226;2024-01-27T07:17:11;10.23;;;7.83;;
359;SDS011;168;48.872;9.226;2024-01-27T07:19:40;12.53;;;8.07;;
359;SDS011;168;48.872;9.226;2024-01-27T07:22:07;11.57;;;8.20;;
359;SDS011;168;48.872;9.226;2024-01-27T07:24:35;11.30;;;8.33;;
359;SDS011;168;48.872;9.226;2024-01-27T07:27:02;11.60;;;7.77;;
359;SDS011;168;48.872;9.226;2024-01-27T07:29:30;11.87;;;7.83;;
359;SDS011;168;48.872;9.226;2024-01-27T07:31:57;8.97;;;6.90;;
359;SDS011;168;48.872;9.226;2024-01-27T07:34:26;15.77;;;8.80;;
359;SDS011;168;48.872;9.226;2024-01-27T07:36:54;10.33;;;7.90;;
359;SDS011;168;48.872;9.226;2024-01-27T07:39:22;8.27;;;6.53;;
359;SDS011;168;48.872;9.226;2024-01-27T07:41:49;8.00;;;6.90;;
359;SDS011;168;48.872;9.226;2024-01-27T07:44:17;8.90;;;6.90;;
359;SDS011;168;48.872;9.226;2024-01-27T07:46:45;8.63;;;7.23;;
359;SDS011;168;48.872;9.226;2024-01-27T07:49:12;9.20;;;6.80;;
359;SDS011;168;48.872;9.226;2024-01-27T07:51:40;10.43;;;7.67;;
359;SDS011;168;48.872;9.226;2024-01-27T07:54:09;11.37;;;6.57;;
359;SDS011;168;48.872;9.226;2024-01-27T07:56:37;8.97;;;7.40;;
359;SDS011;168;48.872;9.226;2024-01-27T07:59:04;8.50;;;6.83;;
359;SDS011;168;48.872;9.226;2024-01-27T08:01:39;7.77;;;5.87;;
359;SDS011;168;48.872;9.226;2024-01-27T08:04:06;10.27;;;7.40;;
359;SDS011;168;48.872;9.226;2024-01-27T08:06:34;11.50;;;7.10;;
359;SDS011;168;48.872;9.226;2024-01-27T08:09:01;8.93;;;7.20;;
359;SDS011;168;48.872;9.226;2024-01-27T08:11:30;8.83;;;7.60;;
359;SDS011;168;48.872;9.226;2024-01-27T08:13:57;10.13;;;6.47;;
359;SDS011;168;48.872;9.226;2024-01-27T08:16:26;9.20;;;7.47;;
359;SDS011;168;48.872;9.226;2024-01-27T08:18:53;9.93;;;7.67;;
359;SDS011;168;48.872;9.226;2024-01-27T08:21:21;9.00;;;6.57;;
359;SDS011;168;48.872;9.226;2024-01-27T08:23:48;7.40;;;6.30;;
359;SDS011;168;48.872;9.226;2024-01-27T08:26:16;10.93;;;7.20;;
359;SDS011;168;48.872;9.226;2024-01-27T08:28:45;9.80;;;7.77;;
359;SDS011;168;48.872;9.226;2024-01-27T08:31:13;8.60;;;7.20;;
359;SDS011;168;48.872;9.226;2024-01-27T08:33:40;8.90;;;6.67;;
359;SDS011;168;48.872;9.226;2024-01-27T08:36:08;8.57;;;6.73;;
359;SDS011;168;48.872;9.226;2024-01-27T08:38:40;12.57;;;9.30;;
359;SDS011;168;48.872;9.226;2024-01-27T08:41:07;15.90;;;12.43;;
359;SDS011;168;48.872;9.226;2024-01-27T08:43:35;15.00;;;11.67;;
359;SDS011;168;48.872;9.226;2024-01-27T08:46:04;13.77;;;12.50;;
359;SDS011;168;48.872;9.226;2024-01-27T08:48:33;9.93;;;8.97;;
359;SDS011;168;48.872;9.226;2024-01-27T08:51:01;9.80;;;7.37;;
359;SDS011;168;48.872;9.226;2024-01-27T08:53:30;8.80;;;8.00;;
359;SDS011;168;48.872;9.226;2024-01-27T08:55:58;10.17;;;9.17;;
359;SDS011;168;48.872;9.226;2024-01-27T08:58:25;10.43;;;8.37;;
359;SDS011;168;48.872;9.226;2024-01-27T09:00:53;9.97;;;7.30;;
359;SDS011;168;48.872;9.226;2024-01-27T09:03:21;7.80;;;7.00;;
359;SDS011;168;48.872;9.226;2024-01-27T09:05:49;8.73;;;7.80;;
359;SDS011;168;48.872;9.226;2024-01-27T09:08:17;11.07;;;6.40;;
359;SDS011;168;48.872;9.226;2024-01-27T09:10:44;9.57;;;7.93;;
359;SDS011;168;48.872;9.226;2024-01-27T09:13:11;8.33;;;7.03;;
359;SDS011;168;48.872;9.226;2024-01-27T09:15:39;7.77;;;7.07;;
359;SDS011;168;48.872;9.226;2024-01-27T09:18:06;9.37;;;7.43;;
359;SDS011;168;48.872;9.226;2024-01-27T09:20:35;10.50;;;7.13;;
359;SDS011;168;48.872;9.226;2024-01-27T09:23:02;9.97;;;7.47;;
359;SDS011;168;48.872;9.226;2024-01-27T09:25:30;9.17;;;7.43;;
359;SDS011;168;48.872;9.226;2024-01-27T09:27:57;8.80;;;7.03;;
359;SDS011;168;48.872;9.226;2024-01-27T09:30:26;8.77;;;6.73;;
359;SDS011;168;48.872;9.226;2024-01-27T09:32:54;7.77;;;6.43;;
359;SDS011;168;48.872;9.226;2024-01-27T09:35:21;7.60;;;6.50;;
359;SDS011;168;48.872;9.226;2024-01-27T09:37:50;8.67;;;7.73;;
359;SDS011;168;48.872;9.226;2024-01-27T09:40:17;8.37;;;7.20;;
359;SDS011;168;48.872;9.226;2024-01-27T09:42:46;10.67;;;7.30;;
359;SDS011;168;48.872;9.226;2024-01-27T09:45:17;8.33;;;6.80;;
359;SDS011;168;48.872;9.226;2024-01-27T09:47:45;8.13;;;6.60;;
359;SDS011;168;48.872;9.226;2024-01-27T09:50:12;7.70;;;6.50;;
359;SDS011;168;48.872;9.226;2024-01-27T09:52:42;8.77;;;6.83;;
359;SDS011;168;48.872;9.226;2024-01-27T09:55:10;9.50;;;7.13;;
359;SDS011;168;48.872;9.226;2024-01-27T09:57:38;8.13;;;7.30;;
359;SDS011;168;48.872;9.226;2024-01-27T10:00:07;8.03;;;6.77;;
359;SDS011;168;48.872;9.226;2024-01-27T10:02:38;8.97;;;7.03;;
359;SDS011;168;48.872;9.226;2024-01-27T10:05:08;10.13;;;6.70;;
359;SDS011;168;48.872;9.226;2024-01-27T10:07:36;9.73;;;7.67;;
359;SDS011;168;48.872;9.226;2024-01-27T10:10:03;8.40;;;7.20;;
359;SDS011;168;48.872;9.226;2024-01-27T10:12:33;8.80;;;7.80;;
359;SDS011;168;48.872;9.226;2024-01-27T10:15:06;10.10;;;6.90;;
359;SDS011;168;48.872;9.226;2024-01-27T10:17:33;8.23;;;6.47;;
359;SDS011;168;48.872;9.226;2024-01-27T10:20:03;8.97;;;6.90;;
359;SDS011;168;48.872;9.226;2024-01-27T10:22:37;7.97;;;6.23;;
359;SDS011;168;48.872;9.226;2024-01-27T10:25:05;9.13;;;7.30;;
359;SDS011;168;48.872;9.226;2024-01-27T10:27:33;8.23;;;6.23;;
359;SDS011;168;48.872;9.226;2024-01-27T10:30:01;8.57;;;7.63;;
359;SDS011;168;48.872;9.226;2024-01-27T10:32:30;11.17;;;7.97;;
359;SDS011;168;48.872;9.226;2024-01-27T10:35:03;10.43;;;7.47;;
359;SDS011;168;48.872;9.226;2024-01-27T10:37:33;11.70;;;7.73;;
359;SDS011;168;48.872;9.226;2024-01-27T10:40:01;9.00;;;7.17;;
359;SDS011;168;48.872;9.226;2024-01-27T10:42:29;9.80;;;8.37;;
359;SDS011;168;48.872;9.226;2024-01-27T10:44:59;8.83;;;6.90;;
359;SDS011;168;48.872;9.226;2024-01-27T10:47:28;11.13;;;6.83;;
359;SDS011;168;48.872;9.226;2024-01-27T10:49:56;7.50;;;6.70;;
359;SDS011;168;48.872;9.226;2024-01-27T10:52:25;8.03;;;6.87;;
359;SDS011;168;48.872;9.226;2024-01-27T10:54:57;7.40;;;5.97;;
359;SDS011;168;48.872;9.226;2024-01-27T10:57:26;12.83;;;6.93;;
359;SDS011;168;48.872;9.226;2024-01-27T10:59:55;8.80;;;7.07;;
359;SDS011;168;48.872;9.226;2024-01-27T11:02:25;12.50;;;6.77;;
359;SDS011;168;48.872;9.226;2024-01-27T11:04:54;9.87;;;7.67;;
359;SDS011;168;48.872;9.226;2024-01-27T11:07:22;9.67;;;8.40;;
359;SDS011;168;48.872;9.226;2024-01-27T11:09:50;9.27;;;6.20;;
359;SDS011;168;48.872;9.226;2024-01-27T11:12:18;11.00;;;6.80;;
359;SDS011;168;48.872;9.226;2024-01-27T11:14:47;8.10;;;5.67;;
359;SDS011;168;48.872;9.226;2024-01-27T11:17:17;7.70;;;5.37;;
359;SDS011;168;48.872;9.226;2024-01-27T11:19:46;8.10;;;6.90;;
359;SDS011;168;48.872;9.226;2024-01-27T11:22:23;8.17;;;5.83;;
359;SDS011;168;48.872;9.226;2024-01-27T11:24:52;12.77;;;6.00;;
359;SDS011;168;48.872;9.226;2024-01-27T11:27:26;8.70;;;5.50;;
359;SDS011;168;48.872;9.226;2024-01-27T11:29:54;8.93;;;4.90;;
359;SDS011;168;48.872;9.226;2024-01-27T11:32:22;10.93;;;5.60;;
359;SDS011;168;48.872;9.226;2024-01-27T11:34:51;7.07;;;5.23;;
359;SDS011;168;48.872;9.226;2024-01-27T11:37:19;9.00;;;5.23;;
359;SDS011;168;48.872;9.226;2024-01-27T11:39:50;8.37;;;5.40;;
359;SDS011;168;48.872;9.226;2024-01-27T11:42:18;8.50;;;5.20;;
359;SDS011;168;48.872;9.226;2024-01-27T11:44:46;7.07;;;4.57;;
359;SDS011;168;48.872;9.226;2024-01-27T11:47:14;7.63;;;5.27;;
359;SDS011;168;48.872;9.226;2024-01-27T11:49:42;8.37;;;5.57;;
359;SDS011;168;48.872;9.226;2024-01-27T11:52:11;6.93;;;3.80;;
359;SDS011;168;48.872;9.226;2024-01-27T11:54:37;5.53;;;4.00;;
359;SDS011;168;48.872;9.226;2024-01-27T11:57:05;7.60;;;4.17;;
359;SDS011;168;48.872;9.226;2024-01-27T11:59:33;8.63;;;4.47;;
359;SDS011;168;48.872;9.226;2024-01-27T12:02:01;8.20;;;4.80;;
359;SDS011;168;48.872;9.226;2024-01-27T12:04:29;9.00;;;4.93;;
359;SDS011;168;48.872;9.226;2024-01-27T12:06:56;13.37;;;4.70;;
359;SDS011;168;48.872;9.226;2024-01-27T12:09:25;8.10;;;4.23;;
359;SDS011;168;48.872;9.226;2024-01-27T12:11:52;9.37;;;5.00;;
359;SDS011;168;48.872;9.226;2024-01-27T12:14:20;7.97;;;4.53;;
359;SDS011;168;48.872;9.226;2024-01-27T12:16:48;6.93;;;4.50;;
359;SDS011;168;48.872;9.226;2024-01-27T12:19:18;11.90;;;5.43;;
359;SDS011;168;48.872;9.226;2024-01-27T12:21:49;7.10;;;5.10;;
359;SDS011;168;48.872;9.226;2024-01-27T12:24:16;13.00;;;4.80;;
359;SDS011;168;48.872;9.226;2024-01-27T12:26:45;8.23;;;4.50;;
359;SDS011;168;48.872;9.226;2024-01-27T12:29:12;8.87;;;5.07;;
359;SDS011;168;48.872;9.226;2024-01-27T12:31:40;7.37;;;5.33;;
359;SDS011;168;48.872;9.226;2024-01-27T12:34:09;8.20;;;4.73;;
359;SDS011;168;48.872;9.226;2024-01-27T12:36:40;6.90;;;4.87;;
359;SDS011;168;48.872;9.226;2024-01-27T12:39:08;7.30;;;4.30;;
359;SDS011;168;48.872;9.226;2024-01-27T12:41:36;6.73;;;4.80;;
359;SDS011;168;48.872;9.226;2024-01-27T12:44:05;8.03;;;4.97;;
359;SDS011;168;48.872;9.226;2024-01-27T12:46:33;10.90;;;5.37;;
359;SDS011;168;48.872;9.226;2024-01-27T12:49:00;8.40;;;5.70;;
359;SDS011;168;48.872;9.226;2024-01-27T12:51:29;5.73;;;5.00;;
359;SDS011;168;48.872;9.226;2024-01-27T12:53:57;9.77;;;5.17;;
359;SDS011;168;48.872;9.226;2024-01-27T12:56:25;9.10;;;5.93;;
359;SDS011;168;48.872;9.226;2024-01-27T12:58:52;10.57;;;5.57;;
359;SDS011;168;48.872;9.226;2024-01-27T13:01:22;7.70;;;5.00;;
359;SDS011;168;48.872;9.226;2024-01-27T13:03:49;7.80;;;4.70;;
359;SDS011;168;48.872;9.226;2024-01-27T13:06:17;7.63;;;4.20;;
359;SDS011;168;48.872;9.226;2024-01-27T13:08:46;4.90;;;3.90;;
359;SDS011;168;48.872;9.226;2024-01-27T13:11:13;8.97;;;4.40;;
359;SDS011;168;48.872;9.226;2024-01-27T13:13:41;7.83;;;4.67;;
359;SDS011;168;48.872;9.226;2024-01-27T13:16:08;8.43;;;4.63;;
359;SDS011;168;48.872;9.226;2024-01-27T13:18:37;6.40;;;4.43;;
359;SDS011;168;48.872;9.226;2024-01-27T13:21:05;6.70;;;4.30;;
359;SDS011;168;48.872;9.226;2024-01-27T13:23:32;7.37;;;4.20;;
359;SDS011;168;48.872;9.226;2024-01-27T13:26:00;6.60;;;4.00;;
359;SDS011;168;48.872;9.226;2024-01-27T13:28:27;5.00;;;2.80;;
359;SDS011;168;48.872;9.226;2024-01-27T13:30:55;3.90;;;3.10;;
359;SDS011;168;48.872;9.226;2024-01-27T13:33:22;6.37;;;3.87;;
359;SDS011;168;48.872;9.226;2024-01-27T13:35:51;7.73;;;3.70;;
359;SDS011;168;48.872;9.226;2024-01-27T13:38:18;4.70;;;3.60;;
359;SDS011;168;48.872;9.226;2024-01-27T13:40:49;5.90;;;3.63;;
359;SDS011;168;48.872;9.226;2024-01-27T13:43:17;9.50;;;4.33;;
359;SDS011;168;48.872;9.226;2024-01-27T13:46:06;11.80;;;4.93;;
359;SDS011;168;48.872;9.226;2024-01-27T13:48:33;6.37;;;4.50;;
359;SDS011;168;48.872;9.226;2024-01-27T13:51:02;10.43;;;4.63;;
359;SDS011;168;48.872;9.226;2024-01-27T13:53:30;8.07;;;4.47;;
359;SDS011;168;48.872;9.226;2024-01-27T13:55:57;6.97;;;4.30;;
359;SDS011;168;48.872;9.226;2024-01-27T13:58:25;4.87;;;3.67;;
359;SDS011;168;48.872;9.226;2024-01-27T14:00:53;6.97;;;4.40;;
359;SDS011;168;48.872;9.226;2024-01-27T14:03:20;4.80;;;3.93;;
359;SDS011;168;48.872;9.226;2024-01-27T14:05:48;6.50;;;4.17;;
359;SDS011;168;48.872;9.226;2024-01-27T14:08:17;11.20;;;5.50;;
359;SDS011;168;48.872;9.226;2024-01-27T14:10:45;6.53;;;4.47;;
359;SDS011;168;48.872;9.226;2024-01-27T14:13:14;7.37;;;4.80;;
359;SDS011;168;48.872;9.226;2024-01-27T14:15:41;7.30;;;4.60;;
359;SDS011;168;48.872;9.226;2024-01-27T14:18:08;8.67;;;4.50;;
359;SDS011;168;48.872;9.226;2024-01-27T14:20:39;7.07;;;4.47;;
359;SDS011;168;48.872;9.226;2024-01-27T14:23:07;8.67;;;4.47;;
359;SDS011;168;48.872;9.226;2024-01-27T14:25:36;5.53;;;4.00;;
359;SDS011;168;48.872;9.226;2024-01-27T14:28:03;7.20;;;4.77;;
359;SDS011;168;48.872;9.226;2024-01-27T14:30:32;6.93;;;4.70;;
359;SDS011;168;48.872;9.226;2024-01-27T14:33:00;9.50;;;4.87;;
359;SDS011;168;48.872;9.226;2024-01-27T14:35:27;9.83;;;4.33;;
359;SDS011;168;48.872;9.226;2024-01-27T14:37:55;12.47;;;6.30;;
359;SDS011;168;48.872;9.226;2024-01-27T14:40:23;4.87;;;4.07;;
359;SDS011;168;48.872;9.226;2024-01-27T14:42:52;9.13;;;4.40;;
359;SDS011;168;48.872;9.226;2024-01-27T14:45:20;5.70;;;4.17;;
359;SDS011;168;48.872;9.226;2024-01-27T14:47:47;6.93;;;5.17;;
359;SDS011;168;48.872;9.226;2024-01-27T14:50:15;5.70;;;3.80;;
359;SDS011;168;48.872;9.226;2024-01-27T14:52:52;8.20;;;4.50;;
359;SDS011;168;48.872;9.226;2024-01-27T14:55:20;6.53;;;4.90;;
359;SDS011;168;48.872;9.226;2024-01-27T14:57:47;6.23;;;3.93;;
359;SDS011;168;48.872;9.226;2024-01-27T15:00:16;6.53;;;4.17;;
359;SDS011;168;48.872;9.226;2024-01-27T15:02:43;11.00;;;4.20;;
359;SDS011;168;48.872;9.226;2024-01-27T15:05:11;7.37;;;3.87;;
359;SDS011;168;48.872;9.226;2024-01-27T15:07:38;6.37;;;3.77;;
359;SDS011;168;48.872;9.226;2024-01-27T15:10:06;5.93;;;3.63;;
359;SDS011;168;48.872;9.226;2024-01-27T15:12:37;6.13;;;4.17;;
359;SDS011;168;48.872;9.226;2024-01-27T15:15:08;4.10;;;3.40;;
359;SDS011;168;48.872;9.226;2024-01-27T15:17:37;4.87;;;3.20;;
359;SDS011;168;48.872;9.226;2024-01-27T15:20:05;8.60;;;3.50;;
359;SDS011;168;48.872;9.226;2024-01-27T15:22:36;4.60;;;3.27;;
359;SDS011;168;48.872;9.226;2024-01-27T15:25:07;8.10;;;3.50;;
359;SDS011;168;48.872;9.226;2024-01-27T15:27:35;5.07;;;3.10;;
359;SDS011;168;48.872;9.226;2024-01-27T15:30:02;5.57;;;3.27;;
359;SDS011;168;48.872;9.226;2024-01-27T15:32:34;5.10;;;2.87;;
359;SDS011;168;48.872;9.226;2024-01-27T15:35:06;7.60;;;3.80;;
359;SDS011;168;48.872;9.226;2024-01-27T15:37:33;6.82;;;3.70;;
359;SDS011;168;48.872;9.226;2024-01-27T15:40:04;5.30;;;3.23;;
359;SDS011;168;48.872;9.226;2024-01-27T15:42:31;6.23;;;3.57;;
359;SDS011;168;48.872;9.226;2024-01-27T15:44:59;6.20;;;2.97;;
359;SDS011;168;48.872;9.226;2024-01-27T15:47:32;5.90;;;3.47;;
359;SDS011;168;48.872;9.226;2024-01-27T15:50:12;7.27;;;3.47;;